sensor_id;sensor_type;location;lat;lon;timestamp;pressure;altitude;pressure_sealevel;temperature
41654;BMP280;30790;52.030;7.110;2022-07-29T00:01:16;100995.97;;;22.37
41654;BMP280;30790;52.030;7.110;2022-07-29T00:03:41;101005.63;;;22.44
41654;BMP280;30790;52.030;7.110;2022-07-29T00:06:07;101005.06;;;22.42
41654;BMP280;30790;52.030;7.110;2022-07-29T00:08:32;100992.47;;;22.41
41654;BMP280;30790;52.030;7.110;2022-07-29T00:10:57;100993.03;;;22.43
41654;BMP280;30790;52.030;7.110;2022-07-29T00:13:23;100994.44;;;22.46
41654;BMP280;30790;52.030;7.110;2022-07-29T00:15:48;100969.94;;;22.34
41654;BMP280;30790;52.030;7.110;2022-07-29T00:18:13;100980.38;;;22.37
41654;BMP280;30790;52.030;7.110;2022-07-29T00:20:39;100977.38;;;22.39
41654;BMP280;30790;52.030;7.110;2022-07-29T00:23:04;100973.25;;;22.36
41654;BMP280;30790;52.030;7.110;2022-07-29T00:25:29;100977.13;;;22.40
41654;BMP280;30790;52.030;7.110;2022-07-29T00:27:54;100980.44;;;22.42
41654;BMP280;30790;52.030;7.110;2022-07-29T00:30:20;100963.13;;;22.37
41654;BMP280;30790;52.030;7.110;2022-07-29T00:32:45;100946.34;;;22.28
41654;BMP280;30790;52.030;7.110;2022-07-29T00:35:10;100917.44;;;22.15
41654;BMP280;30790;52.030;7.110;2022-07-29T00:37:54;100919.94;;;22.17
41654;BMP280;30790;52.030;7.110;2022-07-29T00:40:20;100917.19;;;22.17
41654;BMP280;30790;52.030;7.110;2022-07-29T00:42:47;100945.38;;;22.39
41654;BMP280;30790;52.030;7.110;2022-07-29T00:45:13;100907.91;;;22.18
41654;BMP280;30790;52.030;7.110;2022-07-29T00:47:39;100928.88;;;22.29
41654;BMP280;30790;52.030;7.110;2022-07-29T00:50:06;100941.06;;;22.43
41654;BMP280;30790;52.030;7.110;2022-07-29T00:52:33;100944.38;;;22.45
41654;BMP280;30790;52.030;7.110;2022-07-29T00:54:59;100883.00;;;22.14
41654;BMP280;30790;52.030;7.110;2022-07-29T00:57:24;100883.56;;;22.16
41654;BMP280;30790;52.030;7.110;2022-07-29T00:59:49;100919.88;;;22.34
41654;BMP280;30790;52.030;7.110;2022-07-29T01:02:15;100912.44;;;22.29
41654;BMP280;30790;52.030;7.110;2022-07-29T01:04:40;100901.97;;;22.21
41654;BMP280;30790;52.030;7.110;2022-07-29T01:07:06;100897.91;;;22.24
41654;BMP280;30790;52.030;7.110;2022-07-29T01:09:33;100926.31;;;22.44
41654;BMP280;30790;52.030;7.110;2022-07-29T01:11:59;100871.47;;;22.12
41654;BMP280;30790;52.030;7.110;2022-07-29T01:14:25;100903.63;;;22.22
41654;BMP280;30790;52.030;7.110;2022-07-29T01:16:54;100881.84;;;22.10
41654;BMP280;30790;52.030;7.110;2022-07-29T01:19:36;100921.44;;;22.46
41654;BMP280;30790;52.030;7.110;2022-07-29T01:25:48;100902.19;;;22.41
41654;BMP280;30790;52.030;7.110;2022-07-29T01:31:04;100901.63;;;22.39
41654;BMP280;30790;52.030;7.110;2022-07-29T01:33:32;100907.41;;;22.43
41654;BMP280;30790;52.030;7.110;2022-07-29T01:36:22;100892.34;;;22.40
41654;BMP280;30790;52.030;7.110;2022-07-29T01:39:26;100889.28;;;22.37
41654;BMP280;30790;52.030;7.110;2022-07-29T01:41:59;100901.94;;;22.43
41654;BMP280;30790;52.030;7.110;2022-07-29T01:44:41;100901.38;;;22.41
41654;BMP280;30790;52.030;7.110;2022-07-29T01:47:12;100904.94;;;22.41
41654;BMP280;30790;52.030;7.110;2022-07-29T01:49:42;100904.41;;;22.44
41654;BMP280;30790;52.030;7.110;2022-07-29T01:52:21;100896.66;;;22.36
41654;BMP280;30790;52.030;7.110;2022-07-29T01:54:55;100888.47;;;22.36
41654;BMP280;30790;52.030;7.110;2022-07-29T01:57:28;100885.22;;;22.39
41654;BMP280;30790;52.030;7.110;2022-07-29T01:59:56;100888.53;;;22.41
41654;BMP280;30790;52.030;7.110;2022-07-29T02:02:23;100877.59;;;22.41
41654;BMP280;30790;52.030;7.110;2022-07-29T02:04:49;100873.41;;;22.34
41654;BMP280;30790;52.030;7.110;2022-07-29T02:07:19;100881.41;;;22.40
41654;BMP280;30790;52.030;7.110;2022-07-29T02:09:45;100866.03;;;22.34
41654;BMP280;30790;52.030;7.110;2022-07-29T02:12:11;100870.97;;;22.37
41654;BMP280;30790;52.030;7.110;2022-07-29T02:14:44;100863.28;;;22.34
41654;BMP280;30790;52.030;7.110;2022-07-29T02:17:12;100874.28;;;22.39
41654;BMP280;30790;52.030;7.110;2022-07-29T02:19:39;100868.50;;;22.36
41654;BMP280;30790;52.030;7.110;2022-07-29T02:22:09;100863.28;;;22.34
41654;BMP280;30790;52.030;7.110;2022-07-29T02:24:37;100868.25;;;22.37
41654;BMP280;30790;52.030;7.110;2022-07-29T02:27:06;100868.25;;;22.37
41654;BMP280;30790;52.030;7.110;2022-07-29T02:29:32;100867.97;;;22.39
41654;BMP280;30790;52.030;7.110;2022-07-29T02:32:00;100868.81;;;22.39
41654;BMP280;30790;52.030;7.110;2022-07-29T02:34:26;100865.19;;;22.34
41654;BMP280;30790;52.030;7.110;2022-07-29T02:36:54;100871.03;;;22.42
41654;BMP280;30790;52.030;7.110;2022-07-29T02:39:22;100865.00;;;22.40
41654;BMP280;30790;52.030;7.110;2022-07-29T02:41:50;100872.09;;;22.41
41654;BMP280;30790;52.030;7.110;2022-07-29T02:44:21;100872.94;;;22.42
41654;BMP280;30790;52.030;7.110;2022-07-29T02:47:23;100879.22;;;22.42
41654;BMP280;30790;52.030;7.110;2022-07-29T02:50:00;100874.03;;;22.41
41654;BMP280;30790;52.030;7.110;2022-07-29T02:52:45;100880.31;;;22.41
41654;BMP280;30790;52.030;7.110;2022-07-29T02:55:17;100875.69;;;22.42
41654;BMP280;30790;52.030;7.110;2022-07-29T02:57:47;100875.94;;;22.40
41654;BMP280;30790;52.030;7.110;2022-07-29T03:00:14;100872.63;;;22.38
41654;BMP280;30790;52.030;7.110;2022-07-29T03:02:43;100862.19;;;22.35
41654;BMP280;30790;52.030;7.110;2022-07-29T03:05:17;100867.66;;;22.35
41654;BMP280;30790;52.030;7.110;2022-07-29T03:07:46;100873.19;;;22.40
41654;BMP280;30790;52.030;7.110;2022-07-29T03:10:12;100861.63;;;22.33
41654;BMP280;30790;52.030;7.110;2022-07-29T03:12:38;100858.13;;;22.38
41654;BMP280;30790;52.030;7.110;2022-07-29T03:15:05;100852.91;;;22.36
41654;BMP280;30790;52.030;7.110;2022-07-29T03:17:31;100843.56;;;22.32
41654;BMP280;30790;52.030;7.110;2022-07-29T03:19:57;100840.28;;;22.30
41654;BMP280;30790;52.030;7.110;2022-07-29T03:22:23;100845.22;;;22.33
41654;BMP280;30790;52.030;7.110;2022-07-29T03:24:49;100848.22;;;22.32
41654;BMP280;30790;52.030;7.110;2022-07-29T03:27:14;100872.06;;;22.36
41654;BMP280;30790;52.030;7.110;2022-07-29T03:29:40;100864.16;;;22.40
41654;BMP280;30790;52.030;7.110;2022-07-29T03:32:06;100861.63;;;22.33
41654;BMP280;30790;52.030;7.110;2022-07-29T03:34:31;100867.41;;;22.37
41654;BMP280;30790;52.030;7.110;2022-07-29T03:36:57;100866.59;;;22.36
41654;BMP280;30790;52.030;7.110;2022-07-29T03:39:25;100860.75;;;22.28
41654;BMP280;30790;52.030;7.110;2022-07-29T03:41:55;100864.38;;;22.33
41654;BMP280;30790;52.030;7.110;2022-07-29T03:44:22;100875.94;;;22.40
41654;BMP280;30790;52.030;7.110;2022-07-29T03:46:49;100863.84;;;22.36
41654;BMP280;30790;52.030;7.110;2022-07-29T03:49:16;100858.34;;;22.31
41654;BMP280;30790;52.030;7.110;2022-07-29T03:51:43;100858.38;;;22.36
41654;BMP280;30790;52.030;7.110;2022-07-29T03:54:08;100865.25;;;22.39
41654;BMP280;30790;52.030;7.110;2022-07-29T03:56:37;100861.94;;;22.37
41654;BMP280;30790;52.030;7.110;2022-07-29T03:59:03;100869.31;;;22.36
41654;BMP280;30790;52.030;7.110;2022-07-29T04:01:29;100857.19;;;22.27
41654;BMP280;30790;52.030;7.110;2022-07-29T04:03:57;100849.56;;;22.29
41654;BMP280;30790;52.030;7.110;2022-07-29T04:06:23;100854.25;;;22.34
41654;BMP280;30790;52.030;7.110;2022-07-29T04:08:48;100850.13;;;22.31
41654;BMP280;30790;52.030;7.110;2022-07-29T04:11:13;100860.59;;;22.39
41654;BMP280;30790;52.030;7.110;2022-07-29T04:13:39;100856.16;;;22.33
41654;BMP280;30790;52.030;7.110;2022-07-29T04:16:04;100854.50;;;22.32
41654;BMP280;30790;52.030;7.110;2022-07-29T04:18:29;100854.25;;;22.34
41654;BMP280;30790;52.030;7.110;2022-07-29T04:20:54;100869.00;;;22.33
41654;BMP280;30790;52.030;7.110;2022-07-29T04:23:20;100876.84;;;22.24
41654;BMP280;30790;52.030;7.110;2022-07-29T04:25:45;100880.34;;;22.19
41654;BMP280;30790;52.030;7.110;2022-07-29T04:28:10;100888.16;;;22.33
41654;BMP280;30790;52.030;7.110;2022-07-29T04:30:37;100844.66;;;22.09
41654;BMP280;30790;52.030;7.110;2022-07-29T04:33:05;100878.28;;;22.32
41654;BMP280;30790;52.030;7.110;2022-07-29T04:35:34;100896.16;;;22.39
41654;BMP280;30790;52.030;7.110;2022-07-29T04:37:59;100902.41;;;22.35
41654;BMP280;30790;52.030;7.110;2022-07-29T04:40:25;100906.16;;;22.29
41654;BMP280;30790;52.030;7.110;2022-07-29T04:42:50;100898.53;;;22.31
41654;BMP280;30790;52.030;7.110;2022-07-29T04:45:15;100888.09;;;22.28
41654;BMP280;30790;52.030;7.110;2022-07-29T04:47:41;100892.59;;;22.17
41654;BMP280;30790;52.030;7.110;2022-07-29T04:50:07;100903.03;;;22.20
41654;BMP280;30790;52.030;7.110;2022-07-29T04:52:33;100904.69;;;22.21
41654;BMP280;30790;52.030;7.110;2022-07-29T04:54:59;100900.69;;;22.29
41654;BMP280;30790;52.030;7.110;2022-07-29T04:57:25;100895.72;;;22.26
41654;BMP280;30790;52.030;7.110;2022-07-29T04:59:50;100908.00;;;22.23
41654;BMP280;30790;52.030;7.110;2022-07-29T05:02:15;100894.75;;;22.15
41654;BMP280;30790;52.030;7.110;2022-07-29T05:04:41;100914.63;;;22.27
41654;BMP280;30790;52.030;7.110;2022-07-29T05:07:06;100871.59;;;22.01
41654;BMP280;30790;52.030;7.110;2022-07-29T05:09:31;100881.66;;;22.17
41654;BMP280;30790;52.030;7.110;2022-07-29T05:11:57;100903.16;;;22.30
41654;BMP280;30790;52.030;7.110;2022-07-29T05:14:22;100900.78;;;22.17
41654;BMP280;30790;52.030;7.110;2022-07-29T05:16:48;100867.78;;;22.02
41654;BMP280;30790;52.030;7.110;2022-07-29T05:19:16;100911.06;;;22.27
41654;BMP280;30790;52.030;7.110;2022-07-29T05:21:41;100898.56;;;22.14
41654;BMP280;30790;52.030;7.110;2022-07-29T05:24:06;100910.59;;;22.13
41654;BMP280;30790;52.030;7.110;2022-07-29T05:26:32;100937.00;;;22.24
41654;BMP280;30790;52.030;7.110;2022-07-29T05:28:57;100913.50;;;22.06
41654;BMP280;30790;52.030;7.110;2022-07-29T05:31:23;100901.41;;;22.02
41654;BMP280;30790;52.030;7.110;2022-07-29T05:33:48;100915.47;;;22.11
41654;BMP280;30790;52.030;7.110;2022-07-29T05:36:13;100948.44;;;22.21
41654;BMP280;30790;52.030;7.110;2022-07-29T05:38:38;100954.88;;;22.32
41654;BMP280;30790;52.030;7.110;2022-07-29T05:41:04;100955.69;;;22.32
41654;BMP280;30790;52.030;7.110;2022-07-29T05:43:30;100963.34;;;22.30
41654;BMP280;30790;52.030;7.110;2022-07-29T05:45:56;100974.59;;;22.34
41654;BMP280;30790;52.030;7.110;2022-07-29T05:48:22;100967.03;;;22.19
41654;BMP280;30790;52.030;7.110;2022-07-29T05:50:47;100962.47;;;22.08
41654;BMP280;30790;52.030;7.110;2022-07-29T05:53:13;100969.41;;;21.82
41654;BMP280;30790;52.030;7.110;2022-07-29T05:55:38;100975.81;;;21.54
41654;BMP280;30790;52.030;7.110;2022-07-29T05:58:03;100974.41;;;21.51
41654;BMP280;30790;52.030;7.110;2022-07-29T06:00:29;100962.56;;;21.46
41654;BMP280;30790;52.030;7.110;2022-07-29T06:02:55;100971.16;;;21.38
41654;BMP280;30790;52.030;7.110;2022-07-29T06:05:20;100954.91;;;21.31
41654;BMP280;30790;52.030;7.110;2022-07-29T06:07:45;100959.56;;;21.31
41654;BMP280;30790;52.030;7.110;2022-07-29T06:10:11;100936.09;;;21.18
41654;BMP280;30790;52.030;7.110;2022-07-29T06:12:36;100934.41;;;21.28
41654;BMP280;30790;52.030;7.110;2022-07-29T06:15:02;100937.13;;;21.00
41654;BMP280;30790;52.030;7.110;2022-07-29T06:17:27;100945.13;;;21.18
41654;BMP280;30790;52.030;7.110;2022-07-29T06:19:52;100952.25;;;21.19
41654;BMP280;30790;52.030;7.110;2022-07-29T06:22:18;100943.41;;;21.29
41654;BMP280;30790;52.030;7.110;2022-07-29T06:24:43;100939.78;;;21.23
41654;BMP280;30790;52.030;7.110;2022-07-29T06:27:12;100898.75;;;20.90
41654;BMP280;30790;52.030;7.110;2022-07-29T06:29:37;100945.56;;;21.27
41654;BMP280;30790;52.030;7.110;2022-07-29T06:32:03;100942.84;;;21.27
41654;BMP280;30790;52.030;7.110;2022-07-29T06:34:29;100935.59;;;21.21
41654;BMP280;30790;52.030;7.110;2022-07-29T06:36:54;100941.91;;;21.21
41654;BMP280;30790;52.030;7.110;2022-07-29T06:39:20;100942.72;;;21.22
41654;BMP280;30790;52.030;7.110;2022-07-29T06:41:49;100934.53;;;21.22
41654;BMP280;30790;52.030;7.110;2022-07-29T06:44:16;100933.28;;;21.41
41654;BMP280;30790;52.030;7.110;2022-07-29T06:46:41;100924.06;;;21.31
41654;BMP280;30790;52.030;7.110;2022-07-29T06:49:07;100923.81;;;21.32
41654;BMP280;30790;52.030;7.110;2022-07-29T06:51:32;100925.41;;;21.45
41654;BMP280;30790;52.030;7.110;2022-07-29T06:53:58;100922.31;;;21.58
41654;BMP280;30790;52.030;7.110;2022-07-29T06:56:24;100924.56;;;21.61
41654;BMP280;30790;52.030;7.110;2022-07-29T06:58:50;100926.13;;;21.57
41654;BMP280;30790;52.030;7.110;2022-07-29T07:01:15;100937.56;;;21.71
41654;BMP280;30790;52.030;7.110;2022-07-29T07:03:40;100938.97;;;21.73
41654;BMP280;30790;52.030;7.110;2022-07-29T07:06:07;100948.13;;;21.84
41654;BMP280;30790;52.030;7.110;2022-07-29T07:08:33;100921.16;;;21.54
41654;BMP280;30790;52.030;7.110;2022-07-29T07:10:58;100947.16;;;21.73
41654;BMP280;30790;52.030;7.110;2022-07-29T07:13:23;100951.94;;;21.83
41654;BMP280;30790;52.030;7.110;2022-07-29T07:15:49;100945.66;;;21.82
41654;BMP280;30790;52.030;7.110;2022-07-29T07:18:15;100959.91;;;21.84
41654;BMP280;30790;52.030;7.110;2022-07-29T07:20:41;100963.78;;;21.88
41654;BMP280;30790;52.030;7.110;2022-07-29T07:23:07;100961.88;;;21.89
41654;BMP280;30790;52.030;7.110;2022-07-29T07:25:33;100950.28;;;21.82
41654;BMP280;30790;52.030;7.110;2022-07-29T07:27:58;100961.16;;;21.94
41654;BMP280;30790;52.030;7.110;2022-07-29T07:30:23;100947.88;;;21.85
41654;BMP280;30790;52.030;7.110;2022-07-29T07:32:49;100958.41;;;21.94
41654;BMP280;30790;52.030;7.110;2022-07-29T07:35:14;100946.31;;;21.89
41654;BMP280;30790;52.030;7.110;2022-07-29T07:37:40;100945.47;;;21.89
41654;BMP280;30790;52.030;7.110;2022-07-29T07:40:06;100944.25;;;21.97
41654;BMP280;30790;52.030;7.110;2022-07-29T07:42:32;100923.59;;;21.89
41654;BMP280;30790;52.030;7.110;2022-07-29T07:44:58;100912.94;;;21.87
41654;BMP280;30790;52.030;7.110;2022-07-29T07:47:23;100905.56;;;21.88
41654;BMP280;30790;52.030;7.110;2022-07-29T07:49:50;100924.84;;;21.98
41654;BMP280;30790;52.030;7.110;2022-07-29T07:52:16;100931.91;;;21.94
41654;BMP280;30790;52.030;7.110;2022-07-29T07:54:42;100931.66;;;21.96
41654;BMP280;30790;52.030;7.110;2022-07-29T07:57:08;100918.00;;;21.96
41654;BMP280;30790;52.030;7.110;2022-07-29T07:59:34;100915.00;;;21.97
41654;BMP280;30790;52.030;7.110;2022-07-29T08:01:59;100899.94;;;21.95
41654;BMP280;30790;52.030;7.110;2022-07-29T08:04:26;100885.59;;;21.87
41654;BMP280;30790;52.030;7.110;2022-07-29T08:06:51;100894.63;;;21.88
41654;BMP280;30790;52.030;7.110;2022-07-29T08:09:19;100923.28;;;21.85
41654;BMP280;30790;52.030;7.110;2022-07-29T08:11:45;100922.91;;;21.77
41654;BMP280;30790;52.030;7.110;2022-07-29T08:14:10;100920.34;;;21.70
41654;BMP280;30790;52.030;7.110;2022-07-29T08:16:35;100922.00;;;21.71
41654;BMP280;30790;52.030;7.110;2022-07-29T08:19:01;100914.06;;;21.70
41654;BMP280;30790;52.030;7.110;2022-07-29T08:21:26;100926.13;;;21.74
41654;BMP280;30790;52.030;7.110;2022-07-29T08:23:51;100925.94;;;21.80
41654;BMP280;30790;52.030;7.110;2022-07-29T08:26:43;100922.78;;;21.88
41654;BMP280;30790;52.030;7.110;2022-07-29T08:29:09;100934.38;;;21.96
41654;BMP280;30790;52.030;7.110;2022-07-29T08:31:35;100925.09;;;21.97
41654;BMP280;30790;52.030;7.110;2022-07-29T08:34:01;100920.78;;;22.01
41654;BMP280;30790;52.030;7.110;2022-07-29T08:36:27;100910.19;;;21.87
41654;BMP280;30790;52.030;7.110;2022-07-29T08:38:53;100916.84;;;21.75
41654;BMP280;30790;52.030;7.110;2022-07-29T08:41:20;100919.34;;;21.76
41654;BMP280;30790;52.030;7.110;2022-07-29T08:43:46;100926.84;;;21.86
41654;BMP280;30790;52.030;7.110;2022-07-29T08:46:12;100918.16;;;21.89
41654;BMP280;30790;52.030;7.110;2022-07-29T08:48:38;100944.31;;;22.02
41654;BMP280;30790;52.030;7.110;2022-07-29T08:51:06;100940.75;;;22.01
41654;BMP280;30790;52.030;7.110;2022-07-29T08:53:32;100936.56;;;21.94
41654;BMP280;30790;52.030;7.110;2022-07-29T08:55:58;100960.06;;;21.95
41654;BMP280;30790;52.030;7.110;2022-07-29T08:58:25;100960.25;;;22.05
41654;BMP280;30790;52.030;7.110;2022-07-29T09:00:54;100981.59;;;22.08
41654;BMP280;30790;52.030;7.110;2022-07-29T09:03:22;100973.47;;;21.96
41654;BMP280;30790;52.030;7.110;2022-07-29T09:05:48;100974.13;;;22.03
41654;BMP280;30790;52.030;7.110;2022-07-29T09:08:16;101007.28;;;22.24
41654;BMP280;30790;52.030;7.110;2022-07-29T09:10:42;101010.59;;;22.26
41654;BMP280;30790;52.030;7.110;2022-07-29T09:13:08;100997.75;;;22.26
41654;BMP280;30790;52.030;7.110;2022-07-29T09:15:33;101002.63;;;22.24
41654;BMP280;30790;52.030;7.110;2022-07-29T09:17:58;101007.59;;;22.27
41654;BMP280;30790;52.030;7.110;2022-07-29T09:20:25;101009.25;;;22.28
41654;BMP280;30790;52.030;7.110;2022-07-29T09:22:52;101011.72;;;22.30
41654;BMP280;30790;52.030;7.110;2022-07-29T09:25:38;101005.69;;;22.28
41654;BMP280;30790;52.030;7.110;2022-07-29T09:28:07;101002.19;;;22.32
41654;BMP280;30790;52.030;7.110;2022-07-29T09:30:33;101014.78;;;22.33
41654;BMP280;30790;52.030;7.110;2022-07-29T09:33:00;100999.53;;;22.37
41654;BMP280;30790;52.030;7.110;2022-07-29T09:35:27;101009.00;;;22.30
41654;BMP280;30790;52.030;7.110;2022-07-29T09:37:52;101000.03;;;22.34
41654;BMP280;30790;52.030;7.110;2022-07-29T09:40:24;101007.41;;;22.34
41654;BMP280;30790;52.030;7.110;2022-07-29T09:42:52;101014.78;;;22.33
41654;BMP280;30790;52.030;7.110;2022-07-29T09:45:30;101018.34;;;22.34
41654;BMP280;30790;52.030;7.110;2022-07-29T09:47:56;100999.28;;;22.39
41654;BMP280;30790;52.030;7.110;2022-07-29T09:50:40;100975.41;;;22.34
41654;BMP280;30790;52.030;7.110;2022-07-29T09:53:07;100983.44;;;22.41
41654;BMP280;30790;52.030;7.110;2022-07-29T09:55:51;100992.47;;;22.41
41654;BMP280;30790;52.030;7.110;2022-07-29T09:58:18;100972.63;;;22.29
41654;BMP280;30790;52.030;7.110;2022-07-29T10:00:45;100990.50;;;22.37
41654;BMP280;30790;52.030;7.110;2022-07-29T10:03:11;100979.03;;;22.40
41654;BMP280;30790;52.030;7.110;2022-07-29T10:05:37;100971.66;;;22.40
41654;BMP280;30790;52.030;7.110;2022-07-29T10:08:02;100965.09;;;22.41
41654;BMP280;30790;52.030;7.110;2022-07-29T10:10:33;100960.16;;;22.38
41654;BMP280;30790;52.030;7.110;2022-07-29T10:13:08;100959.06;;;22.39
41654;BMP280;30790;52.030;7.110;2022-07-29T10:15:36;100964.22;;;22.36
41654;BMP280;30790;52.030;7.110;2022-07-29T10:18:04;100962.81;;;22.33
41654;BMP280;30790;52.030;7.110;2022-07-29T10:20:31;100962.81;;;22.33
41654;BMP280;30790;52.030;7.110;2022-07-29T10:22:56;100960.66;;;22.35
41654;BMP280;30790;52.030;7.110;2022-07-29T10:25:23;100963.97;;;22.37
41654;BMP280;30790;52.030;7.110;2022-07-29T10:27:49;100961.47;;;22.36
41654;BMP280;30790;52.030;7.110;2022-07-29T10:30:16;100950.75;;;22.29
41654;BMP280;30790;52.030;7.110;2022-07-29T10:33:21;100956.84;;;22.36
41654;BMP280;30790;52.030;7.110;2022-07-29T10:39:16;100947.50;;;22.32
41654;BMP280;30790;52.030;7.110;2022-07-29T10:42:11;100953.53;;;22.34
41654;BMP280;30790;52.030;7.110;2022-07-29T10:44:41;100940.94;;;22.33
41654;BMP280;30790;52.030;7.110;2022-07-29T10:47:07;100953.34;;;22.41
41654;BMP280;30790;52.030;7.110;2022-07-29T10:49:32;100949.47;;;22.37
41654;BMP280;30790;52.030;7.110;2022-07-29T10:52:01;100935.47;;;22.33
41654;BMP280;30790;52.030;7.110;2022-07-29T11:00:28;100948.56;;;22.31
41654;BMP280;30790;52.030;7.110;2022-07-29T11:07:26;100940.38;;;22.31
41654;BMP280;30790;52.030;7.110;2022-07-29T11:15:20;100928.88;;;22.29
41654;BMP280;30790;52.030;7.110;2022-07-29T11:31:44;100940.63;;;22.30
41654;BMP280;30790;52.030;7.110;2022-07-29T11:34:30;100932.09;;;22.26
41654;BMP280;30790;52.030;7.110;2022-07-29T11:39:35;100929.38;;;22.26
41654;BMP280;30790;52.030;7.110;2022-07-29T11:45:07;100926.19;;;22.34
41654;BMP280;30790;52.030;7.110;2022-07-29T11:47:47;100933.50;;;22.29
41654;BMP280;30790;52.030;7.110;2022-07-29T11:50:15;100930.50;;;22.30
41654;BMP280;30790;52.030;7.110;2022-07-29T11:52:45;100937.13;;;22.34
41654;BMP280;30790;52.030;7.110;2022-07-29T11:55:19;100937.94;;;22.35
41654;BMP280;30790;52.030;7.110;2022-07-29T11:57:59;100935.78;;;22.37
41654;BMP280;30790;52.030;7.110;2022-07-29T12:02:50;100944.13;;;22.25
41654;BMP280;30790;52.030;7.110;2022-07-29T12:05:16;100933.88;;;21.99
41654;BMP280;30790;52.030;7.110;2022-07-29T12:07:41;100933.53;;;22.12
41654;BMP280;30790;52.030;7.110;2022-07-29T12:10:07;100932.03;;;22.21
41654;BMP280;30790;52.030;7.110;2022-07-29T12:12:34;100945.00;;;22.31
41654;BMP280;30790;52.030;7.110;2022-07-29T12:15:14;100937.69;;;22.36
41654;BMP280;30790;52.030;7.110;2022-07-29T12:17:40;100949.47;;;22.37
41654;BMP280;30790;52.030;7.110;2022-07-29T12:20:05;100952.50;;;22.40
41654;BMP280;30790;52.030;7.110;2022-07-29T12:22:34;100946.47;;;22.38
41654;BMP280;30790;52.030;7.110;2022-07-29T12:25:10;100947.03;;;22.40
41654;BMP280;30790;52.030;7.110;2022-07-29T12:27:37;100946.53;;;22.43
41654;BMP280;30790;52.030;7.110;2022-07-29T12:30:16;100930.00;;;22.33
41654;BMP280;30790;52.030;7.110;2022-07-29T12:32:47;100948.13;;;22.39
41654;BMP280;30790;52.030;7.110;2022-07-29T12:35:15;100940.38;;;22.31
41654;BMP280;30790;52.030;7.110;2022-07-29T12:37:43;100948.38;;;22.38
41654;BMP280;30790;52.030;7.110;2022-07-29T12:40:12;100956.59;;;22.38
41654;BMP280;30790;52.030;7.110;2022-07-29T12:42:38;100950.03;;;22.39
41654;BMP280;30790;52.030;7.110;2022-07-29T12:45:04;100939.28;;;22.32
41654;BMP280;30790;52.030;7.110;2022-07-29T12:47:30;100950.34;;;22.42
41654;BMP280;30790;52.030;7.110;2022-07-29T12:50:14;100946.28;;;22.45
41654;BMP280;30790;52.030;7.110;2022-07-29T12:52:43;100939.97;;;22.44
41654;BMP280;30790;52.030;7.110;2022-07-29T12:55:08;100940.59;;;22.46
41654;BMP280;30790;52.030;7.110;2022-07-29T12:57:47;100942.81;;;22.49
41654;BMP280;30790;52.030;7.110;2022-07-29T13:00:13;100927.13;;;22.45
41654;BMP280;30790;52.030;7.110;2022-07-29T13:02:41;100928.63;;;22.52
41654;BMP280;30790;52.030;7.110;2022-07-29T13:05:08;100930.06;;;22.60
41654;BMP280;30790;52.030;7.110;2022-07-29T13:07:35;100944.09;;;22.69
41654;BMP280;30790;52.030;7.110;2022-07-29T13:10:14;100945.44;;;22.66
41654;BMP280;30790;52.030;7.110;2022-07-29T13:15:27;100941.38;;;22.69
41654;BMP280;30790;52.030;7.110;2022-07-29T13:17:52;100938.63;;;22.69
41654;BMP280;30790;52.030;7.110;2022-07-29T13:20:17;100943.59;;;22.72
41654;BMP280;30790;52.030;7.110;2022-07-29T13:22:47;100936.66;;;22.64
41654;BMP280;30790;52.030;7.110;2022-07-29T13:25:13;100938.59;;;22.64
41654;BMP280;30790;52.030;7.110;2022-07-29T13:27:38;100939.19;;;22.71
41654;BMP280;30790;52.030;7.110;2022-07-29T13:30:06;100944.94;;;22.69
41654;BMP280;30790;52.030;7.110;2022-07-29T13:32:32;100927.59;;;22.59
41654;BMP280;30790;52.030;7.110;2022-07-29T13:35:04;100940.75;;;22.62
41654;BMP280;30790;52.030;7.110;2022-07-29T13:37:29;100936.56;;;22.54
41654;BMP280;30790;52.030;7.110;2022-07-29T13:39:56;100941.22;;;22.54
41654;BMP280;30790;52.030;7.110;2022-07-29T13:42:23;100938.22;;;22.55
41654;BMP280;30790;52.030;7.110;2022-07-29T13:44:48;100934.66;;;22.55
41654;BMP280;30790;52.030;7.110;2022-07-29T13:47:16;100932.44;;;22.51
41654;BMP280;30790;52.030;7.110;2022-07-29T13:49:41;100934.72;;;22.60
41654;BMP280;30790;52.030;7.110;2022-07-29T13:52:06;100929.34;;;22.70
41654;BMP280;30790;52.030;7.110;2022-07-29T13:54:32;100922.16;;;22.64
41654;BMP280;30790;52.030;7.110;2022-07-29T13:56:57;100935.63;;;22.70
41654;BMP280;30790;52.030;7.110;2022-07-29T13:59:22;100929.28;;;22.65
41654;BMP280;30790;52.030;7.110;2022-07-29T14:01:48;100920.16;;;22.54
41654;BMP280;30790;52.030;7.110;2022-07-29T14:04:13;100923.25;;;22.63
41654;BMP280;30790;52.030;7.110;2022-07-29T14:06:39;100922.69;;;22.61
41654;BMP280;30790;52.030;7.110;2022-07-29T14:09:04;100924.28;;;22.57
41654;BMP280;30790;52.030;7.110;2022-07-29T14:11:31;100924.47;;;22.50
41654;BMP280;30790;52.030;7.110;2022-07-29T14:13:57;100921.75;;;22.50
41654;BMP280;30790;52.030;7.110;2022-07-29T14:16:22;100926.97;;;22.51
41654;BMP280;30790;52.030;7.110;2022-07-29T14:18:47;100906.59;;;22.42
41654;BMP280;30790;52.030;7.110;2022-07-29T14:21:13;100910.72;;;22.45
41654;BMP280;30790;52.030;7.110;2022-07-29T14:23:38;100919.56;;;22.52
41654;BMP280;30790;52.030;7.110;2022-07-29T14:26:03;100922.06;;;22.54
41654;BMP280;30790;52.030;7.110;2022-07-29T14:28:28;100920.41;;;22.52
41654;BMP280;30790;52.030;7.110;2022-07-29T14:30:54;100917.66;;;22.52
41654;BMP280;30790;52.030;7.110;2022-07-29T14:33:19;100926.44;;;22.55
41654;BMP280;30790;52.030;7.110;2022-07-29T14:35:44;100923.97;;;22.53
41654;BMP280;30790;52.030;7.110;2022-07-29T14:38:10;100924.78;;;22.54
41654;BMP280;30790;52.030;7.110;2022-07-29T14:40:35;100912.16;;;22.47
41654;BMP280;30790;52.030;7.110;2022-07-29T14:43:01;100916.84;;;22.52
41654;BMP280;30790;52.030;7.110;2022-07-29T14:45:26;100916.84;;;22.52
41654;BMP280;30790;52.030;7.110;2022-07-29T14:47:53;100902.47;;;22.40
41654;BMP280;30790;52.030;7.110;2022-07-29T14:50:18;100900.13;;;22.48